Koho Maru No.18 — JK5320 — position and weather

sailwx.info

Track history (hours):
 
Tides and Currents Weather Stations Pressure Air Temp Water Temp Dewpoint Dewpoint Depression Visibility Wind Speed Wind Dir Waves Ship Positions

Koho Maru No.18

Last reported at 2018-Jan-18 16:00 UTC. Time now 2018-Jan-18 16:16 UTC.
Position N 34°43' E 138°30'.

Length 70 m; draft 4.4 m.

Type: Tanker. MMSI: 431400496.

Date/timePositionNaut miles runAvg speedWind from/ knotsBaromVisibWave heightAir tempDewpointWater temp
2018-Jan-18 16:00N 34°43' E 138°30'712.2
2018-Jan-18 15:27N 34°41' E 138°38'611.7
2018-Jan-18 14:57N 34°37' E 138°43'611.7
2018-Jan-18 14:28N 34°35' E 138°50'510.5
2018-Jan-18 14:00N 34°36' E 138°56'510.1
2018-Jan-18 13:29N 34°39' E 139°01'811.0
2018-Jan-18 12:43N 34°46' E 139°07'311.6
2018-Jan-18 12:30N 34°48' E 139°09'612.4
2018-Jan-18 11:59N 34°53' E 139°14'812.3
2018-Jan-18 11:22N 34°57' E 139°22'411.5
2018-Jan-18 11:00N 34°59' E 139°26'611.3
2018-Jan-18 10:29N 35°02' E 139°32'611.8
2018-Jan-18 10:00N 35°05' E 139°38'612.5
2018-Jan-18 09:30N 35°09' E 139°44'612.5
2018-Jan-18 09:01N 35°15' E 139°46'612.1
2018-Jan-18 08:31N 35°20' E 139°42'611.5
2018-Jan-18 08:00N 35°25' E 139°45'612.6
2018-Jan-18 07:30N 35°29' E 139°51'611.7
2018-Jan-18 06:59N 35°30' E 139°58'1 1.8
2018-Jan-18 06:20N 35°30' E 139°60'0 0.1
2018-Jan-18 05:50N 35°30' E 139°60'0 0.1
2018-Jan-18 05:26N 35°30' E 139°60'2 4.1
2018-Jan-18 04:58N 35°30' E 140°02'0 0.0
2018-Jan-18 04:30N 35°30' E 140°02'0 0.0
2018-Jan-17 23:28N 35°30' E 140°02'  
2018-Jan-12 12:47N 34°32' E 137°15'2111.5
2018-Jan-12 11:00N 34°39' E 136°51'712.9
2018-Jan-12 10:27N 34°45' E 136°47'613.0
2018-Jan-12 10:00N 34°50' E 136°44'612.5
2018-Jan-12 09:30N 34°56' E 136°42'3 5.4
2018-Jan-12 09:01N 34°58' E 136°40'0 0.0
2018-Jan-12 08:31N 34°58' E 136°40'0 0.0
2018-Jan-12 08:00N 34°58' E 136°40'0 0.0
2018-Jan-12 07:30N 34°58' E 136°40'0 0.0
2018-Jan-12 07:00N 34°58' E 136°40'0 0.0
2018-Jan-12 06:30N 34°58' E 136°40'0 0.0
2018-Jan-12 06:00N 34°58' E 136°40'1 1.9
2018-Jan-12 05:30N 34°58' E 136°41'0 0.0
2018-Jan-12 04:59N 34°58' E 136°41'0 0.0
2018-Jan-12 04:29N 34°58' E 136°41'0 0.0
2018-Jan-12 03:59N 34°58' E 136°41'0 0.0
2018-Jan-12 03:29N 34°58' E 136°41'0 0.0
2018-Jan-12 02:59N 34°58' E 136°41'0 0.0
2018-Jan-12 02:29N 34°58' E 136°41'0 0.1
2018-Jan-12 01:59N 34°58' E 136°41'0 0.0
2018-Jan-12 01:29N 34°58' E 136°41'0 0.1
2018-Jan-12 00:59N 34°58' E 136°41'0 0.0
2018-Jan-12 00:29N 34°58' E 136°41'0 0.0
2018-Jan-11 23:59N 34°58' E 136°41'0 0.1
2018-Jan-11 23:29N 34°58' E 136°41'0 0.1
2018-Jan-11 22:59N 34°58' E 136°41'0 0.0
2018-Jan-11 22:29N 34°58' E 136°41'0 0.0
2018-Jan-11 21:59N 34°58' E 136°41'0 0.0
2018-Jan-11 21:29N 34°58' E 136°41'0 0.0
2018-Jan-11 20:59N 34°58' E 136°41'0 0.1
2018-Jan-11 20:29N 34°58' E 136°41'0 0.0
2018-Jan-11 19:59N 34°58' E 136°41'0 0.1
2018-Jan-11 19:29N 34°58' E 136°41'0 0.0
2018-Jan-11 18:59N 34°58' E 136°41'0 0.0
2018-Jan-11 18:29N 34°58' E 136°41'0 0.0
2018-Jan-11 17:59N 34°58' E 136°41'0 0.0
2018-Jan-11 17:29N 34°58' E 136°41'0 0.0
2018-Jan-11 16:59N 34°58' E 136°41'3 5.7
2018-Jan-11 16:30N 34°55' E 136°42'612.5
2018-Jan-11 16:00N 34°50' E 136°46'612.5
2018-Jan-11 15:30N 34°44' E 136°49'2011.3
2018-Jan-11 13:43N 34°33' E 137°10'312.0
2018-Jan-11 13:26N 34°33' E 137°14'3411.0
2018-Jan-11 10:22N 34°35' E 137°55'16 8.3
2018-Jan-11 08:26N 34°33' E 138°14'3 7.6
2018-Jan-11 08:00N 34°35' E 138°18'5 9.7
2018-Jan-11 07:30N 34°39' E 138°21'611.2
2018-Jan-11 07:00N 34°44' E 138°24'611.1
2018-Jan-11 06:30N 34°49' E 138°27'611.4
2018-Jan-11 06:00N 34°54' E 138°30'611.3
2018-Jan-11 05:30N 34°59' E 138°33'4 7.3
2018-Jan-11 05:00N 35°02' E 138°30'0 0.3
2018-Jan-11 04:29N 35°02' E 138°30'0 0.0
2018-Jan-11 03:59N 35°02' E 138°30'0 0.0
2018-Jan-11 03:29N 35°02' E 138°30'0 0.0
2018-Jan-11 02:59N 35°02' E 138°30'0 0.0
2018-Jan-11 02:29N 35°02' E 138°30'0 0.0
2018-Jan-11 01:59N 35°02' E 138°30'0 0.0
2018-Jan-11 01:30N 35°02' E 138°30'1 1.1
2018-Jan-11 01:01N 35°02' E 138°31'0 0.0
2018-Jan-11 00:30N 35°02' E 138°31'0 0.1
2018-Jan-11 00:01N 35°02' E 138°30'0 0.0
2018-Jan-10 23:31N 35°02' E 138°30'0 0.0
2018-Jan-10 23:01N 35°02' E 138°30'0 0.0
2018-Jan-10 22:31N 35°02' E 138°30'0 0.1
2018-Jan-10 22:01N 35°02' E 138°31'0 0.0
2018-Jan-10 21:30N 35°02' E 138°31'0 0.0
2018-Jan-10 21:00N 35°02' E 138°31'0 0.1
2018-Jan-10 20:31N 35°02' E 138°30'0 0.0
2018-Jan-10 20:01N 35°02' E 138°30'0 0.0
2018-Jan-10 19:31N 35°02' E 138°30'0 0.0
2018-Jan-10 19:01N 35°02' E 138°30'0 0.0
2018-Jan-10 18:31N 35°02' E 138°30'0 0.0
2018-Jan-10 18:01N 35°02' E 138°30'0 0.0
2018-Jan-10 17:31N 35°02' E 138°30'0 0.0
2018-Jan-10 17:01N 35°02' E 138°30'0 0.0
2018-Jan-10 16:31N 35°02' E 138°30'0 0.0
2018-Jan-10 16:00N 35°02' E 138°30'0 0.1
2018-Jan-10 15:30N 35°02' E 138°31'0 0.0
2018-Jan-10 15:00N 35°02' E 138°31'0 0.0
2018-Jan-10 14:31N 35°02' E 138°31'0 0.1
2018-Jan-10 14:01N 35°02' E 138°30'0 0.0
2018-Jan-10 13:31N 35°02' E 138°30'0 0.0
2018-Jan-10 13:01N 35°02' E 138°30'0 0.0
2018-Jan-10 12:31N 35°02' E 138°30'0 0.0
2018-Jan-10 12:01N 35°02' E 138°30'0 0.3
2018-Jan-10 11:31N 35°02' E 138°31'0 0.5
2018-Jan-10 11:00N 35°02' E 138°31'4 7.6
2018-Jan-10 10:30N 34°60' E 138°34'510.7
2018-Jan-10 10:00N 34°55' E 138°36'611.9
2018-Jan-10 09:30N 34°49' E 138°39'611.8
2018-Jan-10 08:59N 34°43' E 138°41'611.5
2018-Jan-10 08:30N 34°38' E 138°44'510.1
2018-Jan-10 07:59N 34°35' E 138°50'4 9.3
2018-Jan-10 07:30N 34°36' E 138°55'6 8.7
2018-Jan-10 06:48N 34°39' E 139°01'310.7
2018-Jan-10 06:31N 34°42' E 139°03'610.8
2018-Jan-10 05:57N 34°46' E 139°08'610.2
2018-Jan-10 05:24N 34°51' E 139°12'510.1
2018-Jan-10 04:55N 34°54' E 139°16'4 9.7
2018-Jan-10 04:29N 34°56' E 139°21'5 9.6
2018-Jan-10 04:01N 34°59' E 139°25'5 9.3
2018-Jan-10 03:30N 35°01' E 139°30'5 9.1
2018-Jan-10 03:00N 35°03' E 139°35'4 9.1
2018-Jan-10 02:31N 35°06' E 139°40'5 9.3
2018-Jan-10 02:00N 35°09' E 139°44'510.0
2018-Jan-10 01:31N 35°14' E 139°46'611.6
2018-Jan-10 01:01N 35°19' E 139°43'611.2
2018-Jan-10 00:30N 35°25' E 139°43'611.7
2018-Jan-10 00:00N 35°28' E 139°49'611.7
2018-Jan-09 23:30N 35°33' E 139°54'3 0.5
2018-Jan-09 18:37N 35°35' E 139°55'0 0.0
2018-Jan-09 14:58N 35°35' E 139°55'0 0.0
2018-Jan-09 08:58N 35°35' E 139°55'0 0.0
2018-Jan-09 07:55N 35°35' E 139°55'0 0.0
2018-Jan-09 03:22N 35°35' E 139°55'0 0.0
2018-Jan-09 00:16N 35°35' E 139°55'0 0.0
2018-Jan-08 21:52N 35°35' E 139°55'0 0.0
2018-Jan-08 21:22N 35°35' E 139°55'0 0.0
2018-Jan-08 19:52N 35°35' E 139°55'0 0.0
2018-Jan-08 19:04N 35°35' E 139°55'0 0.0
2018-Jan-08 18:46N 35°35' E 139°55'0 0.0
2018-Jan-08 18:10N 35°35' E 139°55'0 0.0
2018-Jan-08 17:58N 35°35' E 139°55'0 0.0
2018-Jan-08 17:10N 35°35' E 139°55'0 0.0
2018-Jan-08 16:46N 35°35' E 139°55'0 0.0
2018-Jan-08 16:28N 35°35' E 139°55'  
Track history (hours):
 
Tides and Currents Weather Stations Pressure Air Temp Water Temp Dewpoint Dewpoint Depression Visibility Wind Speed Wind Dir Waves Ship Positions

Koho Maru No.18

Last reported at 2018-Jan-18 16:00 UTC. Time now 2018-Jan-18 16:16 UTC.
Position N 34°43' E 138°30'.

Length 70 m; draft 4.4 m.

Type: Tanker. MMSI: 431400496.

Date/timePositionNaut miles runAvg speedWind from/ knotsBaromVisibWave heightAir tempDewpointWater temp
2018-Jan-18 16:00N 34°43' E 138°30'712.2
2018-Jan-18 15:27N 34°41' E 138°38'611.7
2018-Jan-18 14:57N 34°37' E 138°43'611.7
2018-Jan-18 14:28N 34°35' E 138°50'510.5
2018-Jan-18 14:00N 34°36' E 138°56'510.1
2018-Jan-18 13:29N 34°39' E 139°01'811.0
2018-Jan-18 12:43N 34°46' E 139°07'311.6
2018-Jan-18 12:30N 34°48' E 139°09'612.4
2018-Jan-18 11:59N 34°53' E 139°14'812.3
2018-Jan-18 11:22N 34°57' E 139°22'411.5
2018-Jan-18 11:00N 34°59' E 139°26'611.3
2018-Jan-18 10:29N 35°02' E 139°32'611.8
2018-Jan-18 10:00N 35°05' E 139°38'612.5
2018-Jan-18 09:30N 35°09' E 139°44'612.5
2018-Jan-18 09:01N 35°15' E 139°46'612.1
2018-Jan-18 08:31N 35°20' E 139°42'611.5
2018-Jan-18 08:00N 35°25' E 139°45'612.6
2018-Jan-18 07:30N 35°29' E 139°51'611.7
2018-Jan-18 06:59N 35°30' E 139°58'1 1.8
2018-Jan-18 06:20N 35°30' E 139°60'0 0.1
2018-Jan-18 05:50N 35°30' E 139°60'0 0.1
2018-Jan-18 05:26N 35°30' E 139°60'2 4.1
2018-Jan-18 04:58N 35°30' E 140°02'0 0.0
2018-Jan-18 04:30N 35°30' E 140°02'0 0.0
2018-Jan-17 23:28N 35°30' E 140°02'  
2018-Jan-12 12:47N 34°32' E 137°15'2111.5
2018-Jan-12 11:00N 34°39' E 136°51'712.9
2018-Jan-12 10:27N 34°45' E 136°47'613.0
2018-Jan-12 10:00N 34°50' E 136°44'612.5
2018-Jan-12 09:30N 34°56' E 136°42'3 5.4
2018-Jan-12 09:01N 34°58' E 136°40'0 0.0
2018-Jan-12 08:31N 34°58' E 136°40'0 0.0
2018-Jan-12 08:00N 34°58' E 136°40'0 0.0
2018-Jan-12 07:30N 34°58' E 136°40'0 0.0
2018-Jan-12 07:00N 34°58' E 136°40'0 0.0
2018-Jan-12 06:30N 34°58' E 136°40'0 0.0
2018-Jan-12 06:00N 34°58' E 136°40'1 1.9
2018-Jan-12 05:30N 34°58' E 136°41'0 0.0
2018-Jan-12 04:59N 34°58' E 136°41'0 0.0
2018-Jan-12 04:29N 34°58' E 136°41'0 0.0
2018-Jan-12 03:59N 34°58' E 136°41'0 0.0
2018-Jan-12 03:29N 34°58' E 136°41'0 0.0
2018-Jan-12 02:59N 34°58' E 136°41'0 0.0
2018-Jan-12 02:29N 34°58' E 136°41'0 0.1
2018-Jan-12 01:59N 34°58' E 136°41'0 0.0
2018-Jan-12 01:29N 34°58' E 136°41'0 0.1
2018-Jan-12 00:59N 34°58' E 136°41'0 0.0
2018-Jan-12 00:29N 34°58' E 136°41'0 0.0
2018-Jan-11 23:59N 34°58' E 136°41'0 0.1
2018-Jan-11 23:29N 34°58' E 136°41'0 0.1
2018-Jan-11 22:59N 34°58' E 136°41'0 0.0
2018-Jan-11 22:29N 34°58' E 136°41'0 0.0
2018-Jan-11 21:59N 34°58' E 136°41'0 0.0
2018-Jan-11 21:29N 34°58' E 136°41'0 0.0
2018-Jan-11 20:59N 34°58' E 136°41'0 0.1
2018-Jan-11 20:29N 34°58' E 136°41'0 0.0
2018-Jan-11 19:59N 34°58' E 136°41'0 0.1
2018-Jan-11 19:29N 34°58' E 136°41'0 0.0
2018-Jan-11 18:59N 34°58' E 136°41'0 0.0
2018-Jan-11 18:29N 34°58' E 136°41'0 0.0
2018-Jan-11 17:59N 34°58' E 136°41'0 0.0
2018-Jan-11 17:29N 34°58' E 136°41'0 0.0
2018-Jan-11 16:59N 34°58' E 136°41'3 5.7
2018-Jan-11 16:30N 34°55' E 136°42'612.5
2018-Jan-11 16:00N 34°50' E 136°46'612.5
2018-Jan-11 15:30N 34°44' E 136°49'2011.3
2018-Jan-11 13:43N 34°33' E 137°10'312.0
2018-Jan-11 13:26N 34°33' E 137°14'3411.0
2018-Jan-11 10:22N 34°35' E 137°55'16 8.3
2018-Jan-11 08:26N 34°33' E 138°14'3 7.6
2018-Jan-11 08:00N 34°35' E 138°18'5 9.7
2018-Jan-11 07:30N 34°39' E 138°21'611.2
2018-Jan-11 07:00N 34°44' E 138°24'611.1
2018-Jan-11 06:30N 34°49' E 138°27'611.4
2018-Jan-11 06:00N 34°54' E 138°30'611.3
2018-Jan-11 05:30N 34°59' E 138°33'4 7.3
2018-Jan-11 05:00N 35°02' E 138°30'0 0.3
2018-Jan-11 04:29N 35°02' E 138°30'0 0.0
2018-Jan-11 03:59N 35°02' E 138°30'0 0.0
2018-Jan-11 03:29N 35°02' E 138°30'0 0.0
2018-Jan-11 02:59N 35°02' E 138°30'0 0.0
2018-Jan-11 02:29N 35°02' E 138°30'0 0.0
2018-Jan-11 01:59N 35°02' E 138°30'0 0.0
2018-Jan-11 01:30N 35°02' E 138°30'1 1.1
2018-Jan-11 01:01N 35°02' E 138°31'0 0.0
2018-Jan-11 00:30N 35°02' E 138°31'0 0.1
2018-Jan-11 00:01N 35°02' E 138°30'0 0.0
2018-Jan-10 23:31N 35°02' E 138°30'0 0.0
2018-Jan-10 23:01N 35°02' E 138°30'0 0.0
2018-Jan-10 22:31N 35°02' E 138°30'0 0.1
2018-Jan-10 22:01N 35°02' E 138°31'0 0.0
2018-Jan-10 21:30N 35°02' E 138°31'0 0.0
2018-Jan-10 21:00N 35°02' E 138°31'0 0.1
2018-Jan-10 20:31N 35°02' E 138°30'0 0.0
2018-Jan-10 20:01N 35°02' E 138°30'0 0.0
2018-Jan-10 19:31N 35°02' E 138°30'0 0.0
2018-Jan-10 19:01N 35°02' E 138°30'0 0.0
2018-Jan-10 18:31N 35°02' E 138°30'0 0.0
2018-Jan-10 18:01N 35°02' E 138°30'0 0.0
2018-Jan-10 17:31N 35°02' E 138°30'0 0.0
2018-Jan-10 17:01N 35°02' E 138°30'0 0.0
2018-Jan-10 16:31N 35°02' E 138°30'0 0.0
2018-Jan-10 16:00N 35°02' E 138°30'0 0.1
2018-Jan-10 15:30N 35°02' E 138°31'0 0.0
2018-Jan-10 15:00N 35°02' E 138°31'0 0.0
2018-Jan-10 14:31N 35°02' E 138°31'0 0.1
2018-Jan-10 14:01N 35°02' E 138°30'0 0.0
2018-Jan-10 13:31N 35°02' E 138°30'0 0.0
2018-Jan-10 13:01N 35°02' E 138°30'0 0.0
2018-Jan-10 12:31N 35°02' E 138°30'0 0.0
2018-Jan-10 12:01N 35°02' E 138°30'0 0.3
2018-Jan-10 11:31N 35°02' E 138°31'0 0.5
2018-Jan-10 11:00N 35°02' E 138°31'4 7.6
2018-Jan-10 10:30N 34°60' E 138°34'510.7
2018-Jan-10 10:00N 34°55' E 138°36'611.9
2018-Jan-10 09:30N 34°49' E 138°39'611.8
2018-Jan-10 08:59N 34°43' E 138°41'611.5
2018-Jan-10 08:30N 34°38' E 138°44'510.1
2018-Jan-10 07:59N 34°35' E 138°50'4 9.3
2018-Jan-10 07:30N 34°36' E 138°55'6 8.7
2018-Jan-10 06:48N 34°39' E 139°01'310.7
2018-Jan-10 06:31N 34°42' E 139°03'610.8
2018-Jan-10 05:57N 34°46' E 139°08'610.2
2018-Jan-10 05:24N 34°51' E 139°12'510.1
2018-Jan-10 04:55N 34°54' E 139°16'4 9.7
2018-Jan-10 04:29N 34°56' E 139°21'5 9.6
2018-Jan-10 04:01N 34°59' E 139°25'5 9.3
2018-Jan-10 03:30N 35°01' E 139°30'5 9.1
2018-Jan-10 03:00N 35°03' E 139°35'4 9.1
2018-Jan-10 02:31N 35°06' E 139°40'5 9.3
2018-Jan-10 02:00N 35°09' E 139°44'510.0
2018-Jan-10 01:31N 35°14' E 139°46'611.6
2018-Jan-10 01:01N 35°19' E 139°43'611.2
2018-Jan-10 00:30N 35°25' E 139°43'611.7
2018-Jan-10 00:00N 35°28' E 139°49'611.7
2018-Jan-09 23:30N 35°33' E 139°54'3 0.5
2018-Jan-09 18:37N 35°35' E 139°55'0 0.0
2018-Jan-09 14:58N 35°35' E 139°55'0 0.0
2018-Jan-09 08:58N 35°35' E 139°55'0 0.0
2018-Jan-09 07:55N 35°35' E 139°55'0 0.0
2018-Jan-09 03:22N 35°35' E 139°55'0 0.0
2018-Jan-09 00:16N 35°35' E 139°55'0 0.0
2018-Jan-08 21:52N 35°35' E 139°55'0 0.0
2018-Jan-08 21:22N 35°35' E 139°55'0 0.0
2018-Jan-08 19:52N 35°35' E 139°55'0 0.0
2018-Jan-08 19:04N 35°35' E 139°55'0 0.0
2018-Jan-08 18:46N 35°35' E 139°55'0 0.0
2018-Jan-08 18:10N 35°35' E 139°55'0 0.0
2018-Jan-08 17:58N 35°35' E 139°55'0 0.0
2018-Jan-08 17:10N 35°35' E 139°55'0 0.0
2018-Jan-08 16:46N 35°35' E 139°55'0 0.0
2018-Jan-08 16:28N 35°35' E 139°55'  

Dump ship's entire track history